Time;durP1;ratioP1;P1;durP2;ratioP2;P2;SDS_P1;SDS_P2;PMS_P1;PMS_P2;Temp;Humidity;BMP_temperature;BMP_pressure;BME280_temperature;BME280_humidity;BME280_pressure;Samples;Min_cycle;Max_cycle;Signal;HPM_P1;HPM_P2
2022/05/03 00:01:49;;;;;;;17.23;5.68;;;;;;;10.68;100.00;101707.19;5066884;28;20051;-81
2022/05/03 00:04:20;;;;;;;9.23;5.38;;;;;;;10.67;100.00;101714.41;5053305;28;20036;-82
2022/05/03 00:06:46;;;;;;;19.83;7.30;;;;;;;10.57;100.00;101695.66;5055346;28;20047;-83
2022/05/03 00:09:20;;;;;;;11.25;6.50;;;;;;;10.66;100.00;101712.69;5066859;28;20386;-79
2022/05/03 00:11:51;;;;;;;11.80;6.20;;;;;;;10.67;100.00;101713.56;5053520;28;20466;-83
2022/05/03 00:14:25;;;;;;;16.73;6.95;;;;;;;10.67;100.00;101710.88;5052514;28;20032;-83
2022/05/03 00:16:52;;;;;;;15.70;6.30;;;;;;;10.62;100.00;101705.94;5039854;28;20024;-82
2022/05/03 00:19:18;;;;;;;12.52;6.53;;;;;;;10.65;100.00;101713.72;5039871;28;20051;-81
2022/05/03 00:21:44;;;;;;;15.80;6.55;;;;;;;10.62;100.00;101710.50;5032054;28;20033;-81
2022/05/03 00:24:09;;;;;;;15.73;7.95;;;;;;;10.56;100.00;101702.03;5035685;28;20044;-78
2022/05/03 00:26:35;;;;;;;11.52;6.28;;;;;;;10.59;100.00;101702.72;5052418;28;20021;-83
2022/05/03 00:29:02;;;;;;;14.95;6.63;;;;;;;10.59;100.00;101705.41;5039387;28;20075;-83
2022/05/03 00:31:28;;;;;;;20.98;7.72;;;;;;;10.56;100.00;101710.09;5038067;28;20129;-81
2022/05/03 00:33:54;;;;;;;14.00;7.03;;;;;;;10.55;100.00;101708.38;5069428;28;20041;-79
2022/05/03 00:36:21;;;;;;;17.10;6.90;;;;;;;10.54;100.00;101709.41;5053451;28;20462;-81
2022/05/03 00:38:46;;;;;;;15.40;6.55;;;;;;;10.53;100.00;101705.03;5037102;28;20128;-80
2022/05/03 00:41:18;;;;;;;11.77;7.05;;;;;;;10.51;100.00;101703.50;5067582;28;20115;-82
2022/05/03 00:43:53;;;;;;;14.60;7.47;;;;;;;10.50;100.00;101710.69;5063325;28;20090;-79
2022/05/03 00:46:25;;;;;;;13.32;7.03;;;;;;;10.46;100.00;101695.03;5047864;28;20437;-81
2022/05/03 00:49:18;;;;;;;22.33;7.88;;;;;;;10.45;100.00;101696.88;5036309;28;20066;-79
2022/05/03 00:51:55;;;;;;;;;;;;;;;10.43;100.00;101701.56;5050714;28;20028;-80
2022/05/03 00:54:49;;;;;;;16.15;7.30;;;;;;;10.41;100.00;101706.22;5043949;28;20366;-79
2022/05/03 00:57:44;;;;;;;15.77;8.40;;;;;;;10.42;100.00;101693.63;5054450;28;20025;-81
2022/05/03 01:00:12;;;;;;;23.13;8.85;;;;;;;10.25;100.00;101679.97;5001612;28;20072;-80
2022/05/03 01:02:52;;;;;;;18.08;8.38;;;;;;;10.21;100.00;101681.28;5069521;28;20047;-83
2022/05/03 01:05:20;;;;;;;20.35;8.55;;;;;;;10.32;100.00;101701.78;5045931;28;20079;-82
2022/05/03 01:08:07;;;;;;;17.05;8.90;;;;;;;10.32;100.00;101699.09;5070538;28;20488;-81
2022/05/03 01:11:17;;;;;;;18.30;8.18;;;;;;;10.32;100.00;101699.09;5052461;28;20115;-80
2022/05/03 01:13:58;;;;;;;14.40;6.80;;;;;;;10.28;100.00;101701.22;5040614;28;20395;-79
2022/05/03 01:16:27;;;;;;;20.35;8.18;;;;;;;10.29;100.00;101696.69;5068796;28;20028;-80
2022/05/03 01:19:03;;;;;;;21.40;9.02;;;;;;;10.26;100.00;101695.09;5054420;28;20174;-81
2022/05/03 01:22:04;;;;;;;15.82;8.57;;;;;;;10.26;100.00;101700.47;5067407;28;20032;-79
2022/05/03 01:24:48;;;;;;;20.88;9.13;;;;;;;10.23;100.00;101697.25;4999790;28;20040;-78
2022/05/03 01:27:18;;;;;;;19.90;8.95;;;;;;;10.19;100.00;101693.16;5044255;28;20102;-79
2022/05/03 01:29:48;;;;;;;21.35;8.50;;;;;;;10.07;100.00;101685.31;5054523;28;20477;-80
2022/05/03 01:32:19;;;;;;;23.05;9.15;;;;;;;10.09;100.00;101693.25;5067513;28;20466;-82
2022/05/03 01:34:46;;;;;;;24.27;8.60;;;;;;;10.09;100.00;101699.47;5031944;28;20031;-81
2022/05/03 01:37:38;;;;;;;18.02;7.95;;;;;;;10.11;100.00;101696.63;5053082;28;20039;-79
2022/05/03 01:40:12;;;;;;;14.95;7.57;;;;;;;10.07;100.00;101692.53;5074619;28;20043;-81
2022/05/03 01:43:07;;;;;;;;;;;;;;;10.08;100.00;101692.41;5032322;28;20064;-80
2022/05/03 01:45:41;;;;;;;21.00;8.50;;;;;;;10.03;100.00;101691.13;5044383;28;19923;-82
2022/05/03 01:48:07;;;;;;;18.42;8.52;;;;;;;9.87;100.00;101668.47;5069986;28;20048;-80
2022/05/03 01:50:32;;;;;;;20.50;8.15;;;;;;;10.05;100.00;101699.91;5069574;28;20032;-81
2022/05/03 01:53:16;;;;;;;18.65;9.40;;;;;;;10.05;100.00;101681.94;5062923;28;20686;-83
2022/05/03 01:56:09;;;;;;;18.98;8.93;;;;;;;10.07;100.00;101682.63;5047771;28;20465;-82
2022/05/03 01:59:04;;;;;;;21.10;7.78;;;;;;;10.06;100.00;101685.50;5068555;28;20082;-82
2022/05/03 02:01:39;;;;;;;21.13;9.10;;;;;;;10.02;100.00;101686.75;5045549;28;20075;-81
2022/05/03 02:04:08;;;;;;;20.17;8.82;;;;;;;9.90;100.00;101667.31;5065824;28;20389;-81
2022/05/03 02:06:46;;;;;;;20.50;9.48;;;;;;;9.97;100.00;101681.00;5069054;28;20145;-82
2022/05/03 02:09:12;;;;;;;19.13;8.77;;;;;;;9.95;100.00;101677.59;5031043;28;20036;-80
2022/05/03 02:12:04;;;;;;;17.02;8.43;;;;;;;9.93;100.00;101674.25;5052352;28;20051;-79
2022/05/03 02:14:46;;;;;;;20.95;8.55;;;;;;;9.90;100.00;101675.38;5043578;28;20043;-82
2022/05/03 02:17:43;;;;;;;24.92;9.13;;;;;;;9.83;100.00;101672.44;5036894;28;20279;-79
2022/05/03 02:20:11;;;;;;;20.92;9.48;;;;;;;9.82;100.00;101677.97;5051107;28;20087;-81
2022/05/03 02:23:09;;;;;;;22.48;9.55;;;;;;;9.66;100.00;101655.28;5050776;28;20043;-82
2022/05/03 02:25:35;;;;;;;19.85;9.35;;;;;;;9.58;100.00;101656.97;5063548;28;20066;-80
2022/05/03 02:28:06;;;;;;;25.63;10.38;;;;;;;9.60;100.00;101666.59;5067304;28;20068;-80
2022/05/03 02:30:33;;;;;;;24.38;8.95;;;;;;;9.56;100.00;101665.22;5067886;28;20109;-83
2022/05/03 02:33:17;;;;;;;26.17;9.60;;;;;;;9.53;100.00;101661.97;5046293;28;20383;-81
2022/05/03 02:35:48;;;;;;;24.50;10.73;;;;;;;9.43;100.00;101645.91;5047135;28;20090;-79
2022/05/03 02:38:20;;;;;;;24.35;9.50;;;;;;;9.41;100.00;101658.59;5067777;28;20175;-84
2022/05/03 02:40:46;;;;;;;19.50;9.38;;;;;;;9.27;100.00;101646.50;5031627;28;20076;-80
2022/05/03 02:43:49;;;;;;;18.50;9.20;;;;;;;9.31;100.00;101652.41;5049735;28;20036;-84
2022/05/03 02:46:32;;;;;;;21.55;9.35;;;;;;;9.22;100.00;101654.97;5060947;28;20033;-80
2022/05/03 02:49:30;;;;;;;19.35;9.05;;;;;;;9.17;100.00;101656.41;5070307;28;20028;-79
2022/05/03 02:52:32;;;;;;;17.85;9.05;;;;;;;9.06;100.00;101654.75;5046748;28;20040;-80
2022/05/03 02:56:23;;;;;;;23.15;9.35;;;;;;;8.92;100.00;101650.69;4995821;28;20084;-82
2022/05/03 03:06:54;;;;;;;21.73;8.70;;;;;;;8.58;100.00;101615.44;4939472;28;20550;-84
2022/05/03 03:10:37;;;;;;;19.55;8.75;;;;;;;8.77;100.00;101647.56;4972088;28;20520;-82
2022/05/03 03:13:24;;;;;;;22.73;9.65;;;;;;;8.91;100.00;101640.91;4925454;28;20061;-82
2022/05/03 03:19:55;;;;;;;15.93;8.60;;;;;;;9.29;100.00;101655.28;4916698;29;20051;-83
2022/05/03 03:26:25;;;;;;;;;;;;;;;9.53;100.00;101656.59;4956354;28;20453;-80
2022/05/03 03:29:30;;;;;;;24.73;10.85;;;;;;;9.60;100.00;101658.53;4925125;28;19918;-81
2022/05/03 03:32:10;;;;;;;30.25;9.80;;;;;;;9.65;100.00;101656.25;4951767;28;20058;-82
2022/05/03 03:35:00;;;;;;;25.92;10.10;;;;;;;9.71;100.00;101664.72;4938099;28;20543;-79
2022/05/03 03:37:28;;;;;;;26.20;11.45;;;;;;;9.73;100.00;101663.56;5017274;28;20041;-83
2022/05/03 03:39:54;;;;;;;22.52;8.55;;;;;;;9.75;100.00;101661.59;5044068;28;20493;-82
2022/05/03 03:42:20;;;;;;;28.77;11.70;;;;;;;9.77;100.00;101659.59;5036846;28;20033;-79
2022/05/03 03:44:46;;;;;;;34.42;11.50;;;;;;;9.78;100.00;101663.13;5054699;28;20060;-80
2022/05/03 03:47:13;;;;;;;26.85;11.45;;;;;;;9.79;100.00;101664.81;5041027;28;20032;-82
2022/05/03 03:49:38;;;;;;;28.65;11.05;;;;;;;9.78;100.00;101663.13;5073614;28;20048;-83
2022/05/03 03:52:08;;;;;;;29.08;11.82;;;;;;;9.77;100.00;101658.75;5051510;28;20113;-83
2022/05/03 03:54:35;;;;;;;33.63;11.77;;;;;;;9.76;100.00;101651.69;5037166;28;20488;-82
2022/05/03 03:57:01;;;;;;;36.22;11.00;;;;;;;9.80;100.00;101669.22;5068258;28;20500;-84
2022/05/03 03:59:30;;;;;;;34.70;12.55;;;;;;;9.79;100.00;101665.69;5058832;28;20060;-81
2022/05/03 04:01:58;;;;;;;30.80;9.38;;;;;;;9.77;100.00;101664.13;5058235;28;20033;-80
2022/05/03 04:04:26;;;;;;;32.58;10.82;;;;;;;9.73;100.00;101657.34;5071532;28;20094;-83
2022/05/03 04:06:52;;;;;;;24.92;10.18;;;;;;;9.75;100.00;101660.75;5055290;28;20504;-80
2022/05/03 04:09:18;;;;;;;30.83;9.98;;;;;;;9.71;100.00;101662.88;5055383;28;20028;-85
2022/05/03 04:11:45;;;;;;;33.15;11.07;;;;;;;9.74;100.00;101659.91;5055343;28;20484;-83
2022/05/03 04:14:14;;;;;;;34.60;11.48;;;;;;;9.73;100.00;101660.03;5072667;28;20025;-84
2022/05/03 04:16:40;;;;;;;33.70;11.10;;;;;;;9.73;100.00;101670.78;5038840;28;20044;-82
2022/05/03 04:19:06;;;;;;;43.88;10.98;;;;;;;9.69;100.00;101659.50;5056574;28;20047;-83
2022/05/03 04:21:32;;;;;;;37.85;10.10;;;;;;;9.66;100.00;101663.34;5041639;28;20453;-82
2022/05/03 04:23:59;;;;;;;34.53;11.25;;;;;;;9.65;100.00;101669.69;5052682;28;20501;-80
2022/05/03 04:26:25;;;;;;;29.13;10.43;;;;;;;9.64;100.00;101659.09;5066365;28;20393;-81
2022/05/03 04:28:58;;;;;;;37.60;10.85;;;;;;;9.65;100.00;101661.63;5067821;28;20035;-83
2022/05/03 04:31:25;;;;;;;42.63;11.25;;;;;;;9.62;100.00;101658.41;5047528;28;20492;-84
2022/05/03 04:33:51;;;;;;;31.02;10.02;;;;;;;9.54;100.00;101645.69;5048211;28;20040;-81
2022/05/03 04:36:17;;;;;;;43.60;10.30;;;;;;;9.58;100.00;101657.84;5071414;28;20024;-81
2022/05/03 04:38:45;;;;;;;31.55;10.95;;;;;;;9.59;100.00;101656.84;5050140;28;20039;-81
2022/05/03 04:41:10;;;;;;;32.75;10.80;;;;;;;9.57;100.00;101653.47;5036015;28;20185;-83
2022/05/03 04:43:36;;;;;;;38.05;11.27;;;;;;;9.58;100.00;101665.03;5072297;28;20428;-81
2022/05/03 04:46:02;;;;;;;46.45;10.65;;;;;;;9.55;100.00;101660.84;5035989;28;20490;-84
2022/05/03 04:48:28;;;;;;;32.00;10.23;;;;;;;9.57;100.00;101669.56;5052856;28;20036;-81
2022/05/03 04:50:53;;;;;;;43.17;11.70;;;;;;;9.56;100.00;101669.72;5052245;28;20178;-81
2022/05/03 04:53:19;;;;;;;37.15;10.98;;;;;;;9.48;100.00;101648.16;5037374;28;20048;-83
2022/05/03 04:55:47;;;;;;;43.33;10.90;;;;;;;9.55;100.00;101659.97;5049404;28;20028;-82
2022/05/03 04:58:12;;;;;;;31.90;10.15;;;;;;;9.59;100.00;101661.38;5054538;28;20028;-83
2022/05/03 05:00:38;;;;;;;40.50;10.90;;;;;;;9.58;100.00;101655.16;5053980;28;20119;-81
2022/05/03 05:03:04;;;;;;;44.50;10.40;;;;;;;9.54;100.00;101643.03;5067208;28;20401;-81
2022/05/03 05:05:29;;;;;;;32.40;11.05;;;;;;;9.59;100.00;101651.47;5027918;28;20040;-83
2022/05/03 05:07:55;;;;;;;28.88;11.88;;;;;;;9.58;100.00;101648.94;5070400;28;20028;-80
2022/05/03 05:10:23;;;;;;;28.85;9.93;;;;;;;9.59;100.00;101646.09;5052636;28;20037;-81
2022/05/03 05:12:55;;;;;;;27.92;10.25;;;;;;;9.59;100.00;101648.78;5070403;28;20043;-80
2022/05/03 05:15:25;;;;;;;29.90;10.27;;;;;;;9.66;100.00;101657.97;5071111;28;20321;-81
2022/05/03 05:17:51;;;;;;;30.52;11.05;;;;;;;9.52;100.00;101638.78;5052336;28;20028;-81
2022/05/03 05:20:17;;;;;;;32.15;11.05;;;;;;;9.62;100.00;101661.91;5037367;28;20442;-81
2022/05/03 05:22:44;;;;;;;31.75;10.05;;;;;;;9.59;100.00;101659.53;5064089;28;20029;-83
2022/05/03 05:25:10;;;;;;;28.15;10.48;;;;;;;9.61;100.00;101662.94;5053911;28;20036;-79
2022/05/03 05:27:35;;;;;;;27.10;9.82;;;;;;;9.68;100.00;101671.22;5049220;28;20044;-83
2022/05/03 05:30:02;;;;;;;27.08;10.40;;;;;;;9.66;100.00;101670.53;5052872;28;20032;-82
2022/05/03 05:32:27;;;;;;;31.08;11.20;;;;;;;9.65;100.00;101667.00;5042371;28;20056;-80
2022/05/03 05:34:53;;;;;;;25.42;9.35;;;;;;;9.58;100.00;101660.53;5033087;28;20110;-81
2022/05/03 05:37:18;;;;;;;27.60;11.00;;;;;;;9.67;100.00;101666.84;5063738;28;20469;-83
2022/05/03 05:39:44;;;;;;;24.90;10.75;;;;;;;9.71;100.00;101670.91;5053075;28;20446;-82
2022/05/03 05:42:11;;;;;;;22.77;10.65;;;;;;;9.47;100.00;101633.84;5070190;28;20497;-80
2022/05/03 05:44:38;;;;;;;25.98;11.07;;;;;;;9.74;100.00;101675.16;5034754;28;20029;-81
2022/05/03 05:47:05;;;;;;;21.20;8.73;;;;;;;9.80;100.00;101664.69;5054747;28;20024;-81
2022/05/03 05:49:31;;;;;;;21.58;9.50;;;;;;;9.83;100.00;101661.69;5059394;28;20052;-79
2022/05/03 05:53:31;;;;;;;27.48;10.93;;;;;;;9.93;100.00;101668.88;5037916;28;20536;-81
2022/05/03 05:54:42;;;;;;;25.20;10.43;;;;;;;10.04;100.00;101664.13;5070780;28;20170;-80
2022/05/03 05:57:08;;;;;;;31.13;11.60;;;;;;;10.09;100.00;101664.53;5070458;28;20119;-83
2022/05/03 05:59:34;;;;;;;27.15;10.10;;;;;;;10.11;100.00;101657.16;5039173;28;20120;-80
2022/05/03 06:01:59;;;;;;;26.52;10.85;;;;;;;10.24;100.00;101666.69;5052058;28;20040;-82
2022/05/03 06:04:27;;;;;;;29.35;10.57;;;;;;;10.28;100.00;101663.59;5050955;28;20044;-82
2022/05/03 06:06:56;;;;;;;26.45;9.82;;;;;;;10.33;100.00;101663.13;5064922;28;20106;-79
2022/05/03 06:09:21;;;;;;;26.00;10.15;;;;;;;10.33;100.00;101668.50;5059959;28;20393;-81
2022/05/03 06:11:47;;;;;;;24.75;8.80;;;;;;;10.32;100.00;101672.22;5066968;28;20119;-82
2022/05/03 06:14:13;;;;;;;29.75;10.20;;;;;;;10.28;100.00;101668.13;5066318;28;20493;-81
2022/05/03 06:16:52;;;;;;;29.02;10.80;;;;;;;10.31;100.00;101667.81;5067724;28;20030;-82
2022/05/03 06:19:18;;;;;;;18.58;7.95;;;;;;;10.36;100.00;101664.69;5037027;28;20060;-83
2022/05/03 06:22:13;;;;;;;18.60;8.73;;;;;;;10.54;100.00;101663.69;5067809;28;20125;-80
2022/05/03 06:24:39;;;;;;;18.63;8.32;;;;;;;10.46;100.00;101633.19;5047147;28;20662;-81
2022/05/03 06:27:06;;;;;;;24.25;9.80;;;;;;;10.74;100.00;101668.91;5030021;28;20025;-81
2022/05/03 06:29:35;;;;;;;20.65;9.27;;;;;;;10.77;100.00;101666.75;5052002;28;20021;-83
2022/05/03 06:32:00;;;;;;;27.40;10.02;;;;;;;10.77;100.00;101671.31;5067310;28;20040;-79
2022/05/03 06:34:26;;;;;;;22.67;9.63;;;;;;;10.75;100.00;101668.75;5050945;28;20044;-81
2022/05/03 06:36:52;;;;;;;19.15;9.88;;;;;;;10.73;100.00;101669.91;5067531;28;20025;-81
2022/05/03 06:39:18;;;;;;;26.48;11.75;;;;;;;10.69;100.00;101672.06;5043086;28;20035;-81
2022/05/03 06:41:43;;;;;;;19.10;9.40;;;;;;;10.62;100.00;101670.16;5045763;28;20031;-84
2022/05/03 06:44:09;;;;;;;17.48;8.52;;;;;;;10.69;100.00;101668.50;5068403;28;20035;-81
2022/05/03 06:46:34;;;;;;;18.05;8.23;;;;;;;10.73;100.00;101668.06;5048237;28;20041;-80
2022/05/03 06:49:00;;;;;;;19.52;8.82;;;;;;;10.81;100.00;101671.81;5048091;28;20028;-81
2022/05/03 06:51:26;;;;;;;22.88;9.55;;;;;;;10.84;100.00;101675.03;5069214;28;20027;-82
2022/05/03 06:53:52;;;;;;;18.67;7.82;;;;;;;10.91;100.00;101678.81;5068479;28;20028;-84
2022/05/03 06:56:18;;;;;;;17.70;8.25;;;;;;;10.93;100.00;101671.44;5046206;28;20047;-79
2022/05/03 06:58:44;;;;;;;22.23;9.05;;;;;;;10.94;100.00;101667.72;5051887;28;20079;-80
2022/05/03 07:01:11;;;;;;;17.65;8.75;;;;;;;10.93;100.00;101678.66;5068297;28;20170;-82
2022/05/03 07:03:38;;;;;;;14.75;7.88;;;;;;;10.90;100.00;101674.44;5068149;28;20036;-80
2022/05/03 07:06:04;;;;;;;16.38;8.10;;;;;;;11.02;100.00;101675.03;5088690;28;20032;-79
2022/05/03 07:08:30;;;;;;;13.63;6.65;;;;;;;11.22;100.00;101673.00;5085082;28;20036;-79
2022/05/03 07:10:56;;;;;;;15.70;7.82;;;;;;;11.35;100.00;101657.25;5065760;28;20465;-79
2022/05/03 07:13:23;;;;;;;21.10;7.80;;;;;;;11.42;100.00;101669.06;5059457;28;20121;-80
2022/05/03 07:15:53;;;;;;;30.23;9.35;;;;;;;11.36;100.00;101669.72;5057058;28;20064;-82
2022/05/03 07:23:48;;;;;;;16.00;8.27;;;;;;;11.64;100.00;101666.81;5068558;28;20040;-80
2022/05/03 07:26:14;;;;;;;16.90;8.18;;;;;;;11.75;100.00;101671.09;5068644;28;20032;-79
2022/05/03 07:28:39;;;;;;;18.33;8.82;;;;;;;11.86;100.00;101665.47;5051385;28;20062;-82
2022/05/03 07:31:05;;;;;;;17.80;8.73;;;;;;;12.02;100.00;101670.06;5067562;28;21731;-78
2022/05/03 07:33:31;;;;;;;17.23;9.63;;;;;;;12.19;100.00;101666.41;5068412;28;20428;-81
2022/05/03 07:35:57;;;;;;;15.90;7.78;;;;;;;12.31;100.00;101659.72;5046787;28;20037;-79
2022/05/03 07:38:22;;;;;;;14.73;7.90;;;;;;;12.22;100.00;101670.63;5064831;28;20051;-81
2022/05/03 07:40:48;;;;;;;17.15;8.65;;;;;;;12.10;100.00;101667.41;5065093;28;20389;-80
2022/05/03 07:43:13;;;;;;;17.73;7.95;;;;;;;12.02;100.00;101668.22;5041264;28;20028;-79
2022/05/03 07:45:39;;;;;;;18.67;8.70;;;;;;;11.90;100.00;101666.81;5063347;28;20032;-83
2022/05/03 07:48:05;;;;;;;15.82;8.68;;;;;;;11.79;100.00;101654.44;5067731;28;20035;-79
2022/05/03 07:50:31;;;;;;;15.50;8.40;;;;;;;12.09;100.00;101671.97;5049511;28;20032;-80
2022/05/03 07:52:56;;;;;;;16.92;8.90;;;;;;;12.63;100.00;101662.63;5042357;28;20063;-80
2022/05/03 07:55:22;;;;;;;15.00;8.18;;;;;;;13.09;100.00;101668.38;5062231;28;20029;-88
2022/05/03 07:57:48;;;;;;;15.98;7.75;;;;;;;13.48;98.85;101682.00;5045450;28;20055;-82
2022/05/03 08:00:14;;;;;;;15.25;7.70;;;;;;;13.79;97.00;101667.75;5031587;28;20379;-82
2022/05/03 08:02:40;;;;;;;13.60;7.80;;;;;;;14.19;94.02;101674.81;5068457;28;20397;-83
2022/05/03 08:05:07;;;;;;;15.77;8.43;;;;;;;14.03;94.12;101662.22;5035057;28;20051;-84
2022/05/03 08:07:34;;;;;;;14.18;7.65;;;;;;;14.19;93.30;101682.94;5053770;28;20464;-86
2022/05/03 08:10:00;;;;;;;14.65;7.60;;;;;;;14.49;89.50;101680.38;5070538;28;20115;-82
2022/05/03 08:12:26;;;;;;;17.00;8.38;;;;;;;14.40;91.23;101686.88;5064842;28;20035;-81
2022/05/03 08:14:52;;;;;;;16.15;7.25;;;;;;;14.01;90.83;101685.03;5071310;28;20028;-83
2022/05/03 08:17:18;;;;;;;13.45;6.90;;;;;;;13.78;91.20;101693.06;5055071;28;20119;-82
2022/05/03 08:19:43;;;;;;;11.38;6.75;;;;;;;14.54;86.80;101688.84;5070563;28;20527;-82
2022/05/03 08:22:09;;;;;;;9.55;6.25;;;;;;;17.09;77.01;101693.88;5072078;28;20033;-83
2022/05/03 08:24:34;;;;;;;9.10;6.10;;;;;;;17.22;73.84;101693.13;5034252;28;20477;-82
2022/05/03 08:27:01;;;;;;;9.63;5.85;;;;;;;17.65;71.57;101694.88;5032126;28;20062;-81
2022/05/03 08:29:29;;;;;;;10.30;6.22;;;;;;;18.66;65.50;101695.13;5071082;28;20384;-78
2022/05/03 08:31:55;;;;;;;8.82;6.20;;;;;;;18.81;65.02;101690.34;5067573;28;20123;-81
2022/05/03 08:34:20;;;;;;;9.68;5.50;;;;;;;18.75;64.28;101698.53;5071426;28;20163;-81
2022/05/03 08:42:01;;;;;;;9.85;5.93;;;;;;;18.78;62.29;101695.38;5071147;28;20031;-80
2022/05/03 08:42:16;;;;;;;9.23;6.20;;;;;;;18.23;64.38;101690.84;5071325;28;20017;-80
2022/05/03 08:44:41;;;;;;;12.02;6.28;;;;;;;18.13;64.68;101692.25;5054127;28;20040;-82
2022/05/03 08:47:07;;;;;;;9.52;5.63;;;;;;;18.07;64.67;101680.28;5071700;28;20047;-81
2022/05/03 08:49:41;;;;;;;14.95;6.90;;;;;;;18.39;63.13;101692.34;5071497;28;20036;-82
2022/05/03 08:52:08;;;;;;;9.68;6.03;;;;;;;18.51;62.27;101681.69;5055538;28;20025;-82
2022/05/03 08:54:37;;;;;;;9.77;6.63;;;;;;;19.13;61.01;101687.84;5054532;28;20032;-79
2022/05/03 08:57:07;;;;;;;9.07;5.60;;;;;;;19.67;58.01;101684.06;5064725;28;20385;-80
2022/05/03 08:59:34;;;;;;;11.00;6.28;;;;;;;19.86;56.89;101685.03;5072132;28;20020;-81
2022/05/03 09:01:59;;;;;;;10.80;6.32;;;;;;;19.85;57.23;101668.91;5073284;28;20028;-80
2022/05/03 09:04:25;;;;;;;8.23;5.88;;;;;;;21.28;53.27;101669.25;5068044;28;20374;-83
2022/05/03 09:06:51;;;;;;;11.60;6.75;;;;;;;22.84;47.59;101677.06;5072373;28;20028;-80
2022/05/03 09:09:19;;;;;;;12.07;7.05;;;;;;;22.01;48.69;101670.38;5068898;28;20028;-80
2022/05/03 09:11:50;;;;;;;9.60;6.32;;;;;;;22.35;48.70;101662.59;5051459;28;20116;-82
2022/05/03 09:14:36;;;;;;;11.23;7.05;;;;;;;23.80;45.12;101665.91;5063854;28;20016;-81
2022/05/03 09:17:02;;;;;;;9.32;6.50;;;;;;;25.43;41.19;101663.38;5069173;28;20024;-80
2022/05/03 09:19:28;;;;;;;8.13;6.05;;;;;;;26.56;38.93;101666.72;5071951;28;20294;-81
2022/05/03 09:24:54;;;;;;;7.43;6.05;;;;;;;28.35;34.09;101663.13;5072992;28;20404;-80
2022/05/03 09:27:21;;;;;;;6.90;5.50;;;;;;;29.25;31.73;101678.44;5061069;28;20016;-81
2022/05/03 09:30:07;;;;;;;8.55;4.93;;;;;;;27.06;33.23;101663.56;5064692;28;20118;-80
2022/05/03 09:32:43;;;;;;;9.65;5.22;;;;;;;25.49;36.44;101678.06;5049598;28;20028;-83
2022/05/03 09:35:35;;;;;;;7.68;4.88;;;;;;;24.83;38.14;101677.81;5038484;28;20124;-80
2022/05/03 09:38:03;;;;;;;6.57;4.22;;;;;;;24.09;38.66;101675.03;5067697;28;20033;-80
2022/05/03 09:40:49;;;;;;;8.82;4.80;;;;;;;23.35;40.83;101669.25;5040528;28;20032;-82
2022/05/03 09:43:16;;;;;;;7.38;4.88;;;;;;;23.48;41.36;101674.50;5067212;28;20040;-81
2022/05/03 09:45:42;;;;;;;7.88;4.35;;;;;;;23.91;40.14;101662.28;5071441;28;20043;-81
2022/05/03 09:48:07;;;;;;;7.55;4.18;;;;;;;23.78;39.57;101659.81;5063487;28;20036;-81
2022/05/03 09:50:45;;;;;;;5.28;4.47;;;;;;;24.21;36.30;101648.31;5071042;28;20028;-81
2022/05/03 09:53:22;;;;;;;7.07;3.88;;;;;;;24.34;37.96;101655.44;5070568;28;20025;-79
2022/05/03 09:55:48;;;;;;;6.15;4.40;;;;;;;23.58;39.20;101650.03;5050066;28;20132;-82
2022/05/03 09:58:15;;;;;;;4.85;3.85;;;;;;;22.35;41.24;101641.50;5065211;28;20619;-80
2022/05/03 10:00:43;;;;;;;6.53;3.42;;;;;;;21.61;42.34;101648.13;5056302;28;20131;-80
2022/05/03 10:03:10;;;;;;;7.82;3.35;;;;;;;21.02;42.92;101645.72;5052800;28;20237;-79
2022/05/03 10:05:41;;;;;;;3.88;2.92;;;;;;;20.61;43.92;101654.44;5036390;28;20060;-80
2022/05/03 10:08:11;;;;;;;5.45;3.33;;;;;;;20.74;44.14;101656.25;5055816;28;20025;-80
2022/05/03 10:10:40;;;;;;;3.47;2.97;;;;;;;21.51;41.45;101648.63;5048167;28;20037;-80
2022/05/03 10:13:05;;;;;;;3.53;2.38;;;;;;;22.71;37.35;101647.94;5053004;28;20048;-81
2022/05/03 10:21:11;;;;;;;4.20;3.08;;;;;;;22.73;38.04;101637.59;5049080;28;20044;-81
2022/05/03 10:23:37;;;;;;;5.32;3.30;;;;;;;22.97;35.87;101635.75;5068070;28;20029;-79
2022/05/03 10:26:05;;;;;;;4.97;3.50;;;;;;;22.98;37.88;101648.38;5069000;28;20035;-82
2022/05/03 10:29:07;;;;;;;5.38;3.72;;;;;;;22.99;38.00;101638.22;5034696;28;20385;-79
2022/05/03 10:31:54;;;;;;;5.30;3.22;;;;;;;22.85;37.34;101632.09;5010734;28;20044;-79
2022/05/03 10:34:42;;;;;;;3.80;2.80;;;;;;;22.51;36.95;101644.66;5071276;28;20040;-78
2022/05/03 10:37:08;;;;;;;4.80;2.53;;;;;;;22.15;37.55;101638.22;5068239;28;20064;-80
2022/05/03 10:39:35;;;;;;;3.60;2.70;;;;;;;21.85;38.76;101641.72;5064452;28;20038;-79
2022/05/03 10:42:10;;;;;;;5.10;3.50;;;;;;;21.90;39.58;101630.91;5069804;28;20032;-78
2022/05/03 10:44:43;;;;;;;4.40;3.13;;;;;;;22.40;38.40;101632.59;5032037;28;20040;-81
2022/05/03 10:47:16;;;;;;;7.90;3.33;;;;;;;23.29;35.79;101632.66;5051579;28;20046;-79
2022/05/03 10:50:12;;;;;;;4.40;3.25;;;;;;;24.40;34.55;101626.13;5036441;28;20512;-81
2022/05/03 10:52:58;;;;;;;5.28;3.55;;;;;;;24.52;34.30;101625.00;5037637;28;20097;-80
2022/05/03 10:55:25;;;;;;;6.35;3.45;;;;;;;23.75;36.41;101638.34;5038483;28;20084;-79
2022/05/03 10:58:25;;;;;;;5.88;3.80;;;;;;;22.78;38.50;101634.97;5051687;28;20217;-80
2022/05/03 11:01:05;;;;;;;4.40;3.70;;;;;;;21.80;40.51;101625.16;5068013;28;20087;-81
2022/05/03 11:03:41;;;;;;;8.10;3.90;;;;;;;20.80;42.60;101581.59;5053020;28;20041;-82
2022/05/03 11:06:32;;;;;;;6.88;4.20;;;;;;;21.00;42.74;101634.16;5035553;28;20032;-80
2022/05/03 11:11:44;;;;;;;8.73;4.07;;;;;;;20.86;43.14;101622.53;5069320;28;20037;-82
2022/05/03 11:14:19;;;;;;;5.65;3.95;;;;;;;21.28;42.29;101620.03;5070325;28;20025;-80
2022/05/03 11:16:47;;;;;;;5.60;4.50;;;;;;;21.27;42.32;101623.81;5051120;28;20063;-83
2022/05/03 11:19:18;;;;;;;5.57;4.63;;;;;;;24.86;37.34;101625.03;5068730;28;20028;-81
2022/05/03 11:21:47;;;;;;;5.10;3.92;;;;;;;27.82;30.26;101620.97;5066511;28;20136;-82
2022/05/03 11:24:17;;;;;;;6.03;3.83;;;;;;;28.96;29.23;101615.31;5070422;28;20032;-81
2022/05/03 11:26:43;;;;;;;7.78;4.60;;;;;;;27.63;31.32;101621.41;5065201;28;20021;-81
2022/05/03 11:29:12;;;;;;;8.52;5.50;;;;;;;25.32;33.84;101598.22;5052582;28;20140;-83
2022/05/03 11:31:37;;;;;;;6.38;4.03;;;;;;;24.18;36.53;101606.75;5051668;28;20040;-81
2022/05/03 11:34:06;;;;;;;6.55;4.28;;;;;;;23.44;37.48;101612.91;5051872;28;20037;-82
2022/05/03 11:36:32;;;;;;;9.10;3.92;;;;;;;22.75;39.32;101610.75;5054581;28;20033;-80
2022/05/03 11:38:59;;;;;;;6.15;4.22;;;;;;;23.44;37.93;101608.25;5040741;28;20048;-82
2022/05/03 11:41:27;;;;;;;4.95;4.20;;;;;;;23.06;37.30;101616.19;5055352;28;20070;-81
2022/05/03 11:43:53;;;;;;;6.13;3.58;;;;;;;23.16;37.20;101619.16;5072975;28;20037;-81
2022/05/03 11:46:20;;;;;;;6.15;4.25;;;;;;;24.07;35.65;101606.56;5052005;28;20036;-80
2022/05/03 11:48:52;;;;;;;4.53;3.85;;;;;;;23.84;35.87;101606.66;5056357;28;20044;-80
2022/05/03 11:57:08;;;;;;;4.65;3.83;;;;;;;22.88;38.20;101606.94;5058279;28;20305;-80
2022/05/03 11:59:33;;;;;;;5.22;3.67;;;;;;;22.89;38.30;101619.59;5073002;28;20039;-82
2022/05/03 12:02:18;;;;;;;5.22;3.38;;;;;;;22.73;37.72;101609.31;5073435;28;20373;-80
2022/05/03 12:05:02;;;;;;;4.40;3.72;;;;;;;22.71;37.82;101579.41;5052532;28;20037;-80
2022/05/03 12:07:31;;;;;;;7.15;3.88;;;;;;;22.51;37.61;101592.59;5082586;28;20025;-80
2022/05/03 12:09:57;;;;;;;6.57;4.07;;;;;;;22.01;39.93;101593.72;5071341;28;20086;-80
2022/05/03 12:12:45;;;;;;;6.97;3.53;;;;;;;21.86;39.87;101602.34;5068601;28;20094;-82
2022/05/03 12:15:28;;;;;;;4.68;3.75;;;;;;;22.00;40.61;101597.53;5073068;28;20059;-83
2022/05/03 12:18:02;;;;;;;7.28;4.63;;;;;;;21.90;40.99;101594.50;5042645;28;20101;-79
2022/05/03 12:20:44;;;;;;;7.28;4.05;;;;;;;21.49;41.61;101588.69;5067980;28;20024;-80